Time;durP1;ratioP1;P1;durP2;ratioP2;P2;SDS_P1;SDS_P2;PMS_P1;PMS_P2;Temp;Humidity;BMP_temperature;BMP_pressure;BME280_temperature;BME280_humidity;BME280_pressure;Samples;Min_cycle;Max_cycle;Signal;HPM_P1;HPM_P2
2021/09/13 00:00:33;;;;;;;;;;;;;;;;;;2105350;28;4556;-75
2021/09/13 00:01:33;;;;;;;;;;;;;;;;;;2105548;28;1124;-74
2021/09/13 00:02:34;;;;;;;;;;;;;;;;;;2101554;28;4662;-74
2021/09/13 00:03:34;;;;;;;;;;;;;;;;;;2103892;28;4689;-74
2021/09/13 00:04:35;;;;;;;;;;;;;;;;;;2106439;27;989;-74
2021/09/13 00:05:35;;;;;;;;;;;;;;;;;;2102670;28;4690;-74
2021/09/13 00:06:36;;;;;;;;;;;;;;;;;;2104334;28;4277;-75
2021/09/13 00:07:36;;;;;;;;;;;;;;;;;;2104743;28;3715;-74
2021/09/13 00:08:37;;;;;;;;;;;;;;;;;;2104756;28;4677;-74
2021/09/13 00:09:37;;;;;;;;;;;;;;;;;;2105099;28;1061;-74
2021/09/13 00:10:42;;;;;;;;;;;;;;;;;;2104007;28;4666;-74
2021/09/13 00:11:42;;;;;;;;;;;;;;;;;;2106190;28;1019;-74
2021/09/13 00:12:43;;;;;;;;;;;;;;;;;;2104573;28;4520;-75
2021/09/13 00:13:43;;;;;;;;;;;;;;;;;;2103206;28;4700;-74
2021/09/13 00:14:44;;;;;;;;;;;;;;;;;;2105647;28;1072;-75
2021/09/13 00:15:44;;;;;;;;;;;;;;;;;;2104562;28;4614;-74
2021/09/13 00:16:45;;;;;;;;;;;;;;;;;;2105489;28;1054;-74
2021/09/13 00:17:46;;;;;;;;;;;;;;;;;;2105905;28;4579;-75
2021/09/13 00:18:47;;;;;;;;;;;;;;;;;;2104219;27;4646;-75
2021/09/13 00:19:48;;;;;;;;;;;;;;;;;;2105055;28;4854;-74
2021/09/13 00:20:48;;;;;;;;;;;;;;;;;;2105408;28;4664;-74
2021/09/13 00:21:49;;;;;;;;;;;;;;;;;;2104669;28;1158;-74
2021/09/13 00:22:49;;;;;;;;;;;;;;;;;;2105966;27;1158;-74
2021/09/13 00:23:50;;;;;;;;;;;;;;;;;;2103982;27;4651;-74
2021/09/13 00:24:50;;;;;;;;;;;;;;;;;;2105077;28;4404;-74
2021/09/13 00:25:51;;;;;;;;;;;;;;;;;;2104160;28;4689;-74
2021/09/13 00:26:51;;;;;;;;;;;;;;;;;;2105128;28;3998;-75
2021/09/13 00:27:54;;;;;;;;;;;;;;;;;;2105997;28;4661;-74
2021/09/13 00:28:54;;;;;;;;;;;;;;;;;;2106254;28;1941;-74
2021/09/13 00:29:55;;;;;;;;;;;;;;;;;;2106322;28;1005;-74
2021/09/13 00:30:55;;;;;;;;;;;;;;;;;;2104710;28;4462;-75
2021/09/13 00:31:56;;;;;;;;;;;;;;;;;;2102890;28;4679;-74
2021/09/13 00:32:56;;;;;;;;;;;;;;;;;;2105744;28;4588;-74
2021/09/13 00:33:57;;;;;;;;;;;;;;;;;;2104953;28;4643;-74
2021/09/13 00:34:57;;;;;;;;;;;;;;;;;;2103892;28;3964;-74
2021/09/13 00:35:59;;;;;;;;;;;;;;;;;;2105476;28;1264;-74
2021/09/13 00:36:59;;;;;;;;;;;;;;;;;;2105187;28;1955;-74
2021/09/13 00:38:00;;;;;;;;;;;;;;;;;;2105769;28;4298;-74
2021/09/13 00:39:00;;;;;;;;;;;;;;;;;;2105892;27;4630;-74
2021/09/13 00:40:01;;;;;;;;;;;;;;;;;;2105085;28;4292;-74
2021/09/13 00:41:01;;;;;;;;;;;;;;;;;;2104363;28;4536;-74
2021/09/13 00:42:04;;;;;;;;;;;;;;;;;;2105014;28;2638;-74
2021/09/13 00:43:04;;;;;;;;;;;;;;;;;;2105679;28;1177;-74
2021/09/13 00:44:05;;;;;;;;;;;;;;;;;;2103805;28;4483;-74
2021/09/13 00:45:05;;;;;;;;;;;;;;;;;;2104488;28;3309;-74
2021/09/13 00:46:07;;;;;;;;;;;;;;;;;;2105633;28;997;-74
2021/09/13 00:47:07;;;;;;;;;;;;;;;;;;2103433;28;4592;-75
2021/09/13 00:48:08;;;;;;;;;;;;;;;;;;2104596;28;3666;-74
2021/09/13 00:49:08;;;;;;;;;;;;;;;;;;2105749;28;1906;-75
2021/09/13 00:50:09;;;;;;;;;;;;;;;;;;2104776;28;4591;-74
2021/09/13 00:51:09;;;;;;;;;;;;;;;;;;2104017;28;4449;-74
2021/09/13 00:52:10;;;;;;;;;;;;;;;;;;2105101;28;1085;-75
2021/09/13 00:53:10;;;;;;;;;;;;;;;;;;2104431;28;4690;-75
2021/09/13 00:54:11;;;;;;;;;;;;;;;;;;2103680;28;4478;-74
2021/09/13 00:55:12;;;;;;;;;;;;;;;;;;2103986;28;4659;-75
2021/09/13 00:56:13;;;;;;;;;;;;;;;;;;2104590;27;4655;-74
2021/09/13 00:57:13;;;;;;;;;;;;;;;;;;2105370;28;1124;-74
2021/09/13 00:58:14;;;;;;;;;;;;;;;;;;2105286;28;4746;-75
2021/09/13 00:59:15;;;;;;;;;;;;;;;;;;2105230;28;4922;-74
2021/09/13 01:00:16;;;;;;;;;;;;;;;;;;2105223;28;1093;-75
2021/09/13 01:01:16;;;;;;;;;;;;;;;;;;2104735;28;1096;-74
2021/09/13 01:02:17;;;;;;;;;;;;;;;;;;2104350;28;4710;-75
2021/09/13 01:03:17;;;;;;;;;;;;;;;;;;2103655;28;1179;-74
2021/09/13 01:04:18;;;;;;;;;;;;;;;;;;2105542;28;1081;-75
2021/09/13 01:05:19;;;;;;;;;;;;;;;;;;2103392;28;3387;-75
2021/09/13 01:06:20;;;;;;;;;;;;;;;;;;2104314;28;4327;-74
2021/09/13 01:07:20;;;;;;;;;;;;;;;;;;2102805;28;4598;-74
2021/09/13 01:08:21;;;;;;;;;;;;;;;;;;2103177;28;4774;-75
2021/09/13 01:09:21;;;;;;;;;;;;;;;;;;2105261;28;1913;-75
2021/09/13 01:10:22;;;;;;;;;;;;;;;;;;2104148;28;1685;-74
2021/09/13 01:11:22;;;;;;;;;;;;;;;;;;2102553;28;4611;-75
2021/09/13 01:12:24;;;;;;;;;;;;;;;;;;2103935;28;4527;-74
2021/09/13 01:13:24;;;;;;;;;;;;;;;;;;2102934;27;4056;-74
2021/09/13 01:14:25;;;;;;;;;;;;;;;;;;2105214;28;1314;-75
2021/09/13 01:15:25;;;;;;;;;;;;;;;;;;2103684;28;4672;-75
2021/09/13 01:16:26;;;;;;;;;;;;;;;;;;2104605;28;2737;-75
2021/09/13 01:17:26;;;;;;;;;;;;;;;;;;2104853;28;1081;-74
2021/09/13 01:18:27;;;;;;;;;;;;;;;;;;2103176;28;4401;-75
2021/09/13 01:19:27;;;;;;;;;;;;;;;;;;2104708;28;4639;-75
2021/09/13 01:20:28;;;;;;;;;;;;;;;;;;2105039;28;4074;-75
2021/09/13 01:21:29;;;;;;;;;;;;;;;;;;2104291;28;4622;-75
2021/09/13 01:22:30;;;;;;;;;;;;;;;;;;2104642;28;4728;-75
2021/09/13 01:23:30;;;;;;;;;;;;;;;;;;2103172;27;4659;-74
2021/09/13 01:24:31;;;;;;;;;;;;;;;;;;2104007;28;4579;-74
2021/09/13 01:25:31;;;;;;;;;;;;;;;;;;2103656;28;4643;-75
2021/09/13 01:26:32;;;;;;;;;;;;;;;;;;2103140;28;4785;-74
2021/09/13 01:27:32;;;;;;;;;;;;;;;;;;2102792;28;5200;-75
2021/09/13 01:28:33;;;;;;;;;;;;;;;;;;2104949;28;1223;-74
2021/09/13 01:29:33;;;;;;;;;;;;;;;;;;2105474;27;2133;-75
2021/09/13 01:30:42;;;;;;;;;;;;;;;;;;2105911;28;1180;-74
2021/09/13 01:31:42;;;;;;;;;;;;;;;;;;2102172;27;4912;-75
2021/09/13 01:32:43;;;;;;;;;;;;;;;;;;2105084;28;1030;-74
2021/09/13 01:33:43;;;;;;;;;;;;;;;;;;2102767;28;4674;-74
2021/09/13 01:34:44;;;;;;;;;;;;;;;;;;2104566;28;2969;-74
2021/09/13 01:35:45;;;;;;;;;;;;;;;;;;2103438;28;5120;-74
2021/09/13 01:36:46;;;;;;;;;;;;;;;;;;2102769;28;4722;-74
2021/09/13 01:37:46;;;;;;;;;;;;;;;;;;2105273;28;4657;-74
2021/09/13 01:38:47;;;;;;;;;;;;;;;;;;2105108;28;4650;-74
2021/09/13 01:39:47;;;;;;;;;;;;;;;;;;2106213;28;1330;-75
2021/09/13 01:40:48;;;;;;;;;;;;;;;;;;2105495;28;1101;-74
2021/09/13 01:41:48;;;;;;;;;;;;;;;;;;2102375;28;4486;-75
2021/09/13 01:42:52;;;;;;;;;;;;;;;;;;2102264;28;4666;-75
2021/09/13 01:43:52;;;;;;;;;;;;;;;;;;2103591;28;1473;-74
2021/09/13 01:44:53;;;;;;;;;;;;;;;;;;2102925;28;4224;-74
2021/09/13 01:45:53;;;;;;;;;;;;;;;;;;2102978;28;1030;-74
2021/09/13 01:46:54;;;;;;;;;;;;;;;;;;2102002;27;4744;-74
2021/09/13 01:47:54;;;;;;;;;;;;;;;;;;2097532;28;4559;-74
2021/09/13 01:48:55;;;;;;;;;;;;;;;;;;2099093;28;4752;-74
2021/09/13 01:49:56;;;;;;;;;;;;;;;;;;2103349;28;4518;-74
2021/09/13 01:50:57;;;;;;;;;;;;;;;;;;2102884;28;4484;-74
2021/09/13 01:51:57;;;;;;;;;;;;;;;;;;2101144;28;4475;-74
2021/09/13 01:52:58;;;;;;;;;;;;;;;;;;2101605;28;3790;-74
2021/09/13 01:53:58;;;;;;;;;;;;;;;;;;2102163;28;4611;-74
2021/09/13 01:54:59;;;;;;;;;;;;;;;;;;2103484;28;4729;-74
2021/09/13 01:55:59;;;;;;;;;;;;;;;;;;2101354;28;4833;-74
2021/09/13 01:57:01;;;;;;;;;;;;;;;;;;2104125;28;3915;-74
2021/09/13 01:58:01;;;;;;;;;;;;;;;;;;2104959;28;1120;-74
2021/09/13 01:59:02;;;;;;;;;;;;;;;;;;2104471;28;4677;-74
2021/09/13 02:00:02;;;;;;;;;;;;;;;;;;2104567;28;5061;-74
2021/09/13 02:01:03;;;;;;;;;;;;;;;;;;2103547;28;5134;-74
2021/09/13 02:02:03;;;;;;;;;;;;;;;;;;2105049;28;1022;-74
2021/09/13 02:03:04;;;;;;;;;;;;;;;;;;2104318;28;4476;-74
2021/09/13 02:04:04;;;;;;;;;;;;;;;;;;2104270;27;5371;-74
2021/09/13 02:05:07;;;;;;;;;;;;;;;;;;2104066;28;3934;-74
2021/09/13 02:06:07;;;;;;;;;;;;;;;;;;2102772;28;4445;-74
2021/09/13 02:07:09;;;;;;;;;;;;;;;;;;2104001;28;3926;-74
2021/09/13 02:08:12;;;;;;;;;;;;;;;;;;2104843;28;1930;-74
2021/09/13 02:09:15;;;;;;;;;;;;;;;;;;2103834;28;4832;-74
2021/09/13 02:10:15;;;;;;;;;;;;;;;;;;2104789;28;1233;-74
2021/09/13 02:11:16;;;;;;;;;;;;;;;;;;2103663;28;3980;-74
2021/09/13 02:12:16;;;;;;;;;;;;;;;;;;2104635;28;4641;-74
2021/09/13 02:13:17;;;;;;;;;;;;;;;;;;2103303;28;4534;-74
2021/09/13 02:14:17;;;;;;;;;;;;;;;;;;2104782;28;4494;-74
2021/09/13 02:15:18;;;;;;;;;;;;;;;;;;2103944;28;4390;-74
2021/09/13 02:16:19;;;;;;;;;;;;;;;;;;2103979;28;958;-74
2021/09/13 02:17:20;;;;;;;;;;;;;;;;;;2104777;28;1029;-74
2021/09/13 02:18:20;;;;;;;;;;;;;;;;;;2103508;28;4783;-74
2021/09/13 02:19:21;;;;;;;;;;;;;;;;;;2102580;28;4415;-75
2021/09/13 02:20:21;;;;;;;;;;;;;;;;;;2103774;28;5024;-75
2021/09/13 02:21:22;;;;;;;;;;;;;;;;;;2101415;28;5122;-74
2021/09/13 02:22:22;;;;;;;;;;;;;;;;;;2101725;28;4837;-74
2021/09/13 02:23:23;;;;;;;;;;;;;;;;;;2103516;28;4443;-74
2021/09/13 02:24:23;;;;;;;;;;;;;;;;;;2104455;28;2038;-75
2021/09/13 02:25:24;;;;;;;;;;;;;;;;;;2103512;28;4870;-75
2021/09/13 02:26:25;;;;;;;;;;;;;;;;;;2101948;28;4820;-74
2021/09/13 02:27:26;;;;;;;;;;;;;;;;;;2103332;28;4835;-75
2021/09/13 02:28:26;;;;;;;;;;;;;;;;;;2100903;28;4625;-75
2021/09/13 02:29:27;;;;;;;;;;;;;;;;;;2103698;28;4834;-75
2021/09/13 02:30:27;;;;;;;;;;;;;;;;;;2103864;28;3947;-74
2021/09/13 02:31:29;;;;;;;;;;;;;;;;;;2102225;28;4831;-75
2021/09/13 02:32:29;;;;;;;;;;;;;;;;;;2103534;28;2171;-75
2021/09/13 02:33:30;;;;;;;;;;;;;;;;;;2100901;28;4606;-74
2021/09/13 02:34:30;;;;;;;;;;;;;;;;;;2104721;28;1428;-74
2021/09/13 02:35:31;;;;;;;;;;;;;;;;;;2104026;28;4682;-75
2021/09/13 02:36:31;;;;;;;;;;;;;;;;;;2103783;28;4548;-75
2021/09/13 02:37:33;;;;;;;;;;;;;;;;;;2104681;28;4508;-75
2021/09/13 02:38:33;;;;;;;;;;;;;;;;;;2103297;28;4717;-74
2021/09/13 02:39:34;;;;;;;;;;;;;;;;;;2102811;28;1291;-74
2021/09/13 02:40:34;;;;;;;;;;;;;;;;;;2101823;28;4571;-74
2021/09/13 02:41:35;;;;;;;;;;;;;;;;;;2103681;28;1074;-74
2021/09/13 02:42:35;;;;;;;;;;;;;;;;;;2105652;28;1118;-74
2021/09/13 02:43:36;;;;;;;;;;;;;;;;;;2102415;28;4686;-74
2021/09/13 02:44:36;;;;;;;;;;;;;;;;;;2102555;28;4523;-74
2021/09/13 02:45:38;;;;;;;;;;;;;;;;;;2102700;28;3142;-74
2021/09/13 02:46:38;;;;;;;;;;;;;;;;;;2101190;28;4642;-74
2021/09/13 02:47:39;;;;;;;;;;;;;;;;;;2102741;28;3953;-74
2021/09/13 02:48:39;;;;;;;;;;;;;;;;;;2103054;28;4571;-75
2021/09/13 02:49:40;;;;;;;;;;;;;;;;;;2101596;28;4444;-74
2021/09/13 02:50:40;;;;;;;;;;;;;;;;;;2102534;28;4666;-74
2021/09/13 02:51:41;;;;;;;;;;;;;;;;;;2100385;28;4410;-74
2021/09/13 02:52:41;;;;;;;;;;;;;;;;;;2103147;28;4734;-75
2021/09/13 02:53:42;;;;;;;;;;;;;;;;;;2101396;28;4262;-74
2021/09/13 02:54:42;;;;;;;;;;;;;;;;;;2102633;28;1489;-74
2021/09/13 02:55:44;;;;;;;;;;;;;;;;;;2102703;28;2698;-74
2021/09/13 02:56:46;;;;;;;;;;;;;;;;;;2102913;28;4900;-75
2021/09/13 02:57:47;;;;;;;;;;;;;;;;;;2101493;28;4464;-74
2021/09/13 02:58:47;;;;;;;;;;;;;;;;;;2101656;28;4632;-74
2021/09/13 02:59:48;;;;;;;;;;;;;;;;;;2099453;28;4934;-74
2021/09/13 03:00:48;;;;;;;;;;;;;;;;;;2100126;28;4823;-74
2021/09/13 03:01:49;;;;;;;;;;;;;;;;;;2101653;28;4451;-75
2021/09/13 03:02:49;;;;;;;;;;;;;;;;;;2102861;28;4709;-74
2021/09/13 03:03:50;;;;;;;;;;;;;;;;;;2100339;28;4659;-74
2021/09/13 03:04:51;;;;;;;;;;;;;;;;;;2101699;27;4359;-74
2021/09/13 03:05:52;;;;;;;;;;;;;;;;;;2100328;28;4348;-74
2021/09/13 03:06:52;;;;;;;;;;;;;;;;;;2099426;28;4772;-74
2021/09/13 03:07:53;;;;;;;;;;;;;;;;;;2100680;28;4439;-74
2021/09/13 03:08:53;;;;;;;;;;;;;;;;;;2102244;28;4586;-74
2021/09/13 03:09:55;;;;;;;;;;;;;;;;;;2100050;28;4553;-74
2021/09/13 03:10:55;;;;;;;;;;;;;;;;;;2097919;28;3961;-74
2021/09/13 03:11:56;;;;;;;;;;;;;;;;;;2098835;28;4440;-74
2021/09/13 03:12:56;;;;;;;;;;;;;;;;;;2100266;28;4432;-74
2021/09/13 03:13:57;;;;;;;;;;;;;;;;;;2101090;28;4529;-74
2021/09/13 03:14:57;;;;;;;;;;;;;;;;;;2095716;28;4632;-74
2021/09/13 03:15:58;;;;;;;;;;;;;;;;;;2101504;28;4327;-74
2021/09/13 03:16:58;;;;;;;;;;;;;;;;;;2103713;28;1365;-74
2021/09/13 03:17:59;;;;;;;;;;;;;;;;;;2104492;28;1113;-74
2021/09/13 03:19:00;;;;;;;;;;;;;;;;;;2102399;28;3268;-75
2021/09/13 03:20:01;;;;;;;;;;;;;;;;;;2103020;28;3918;-74
2021/09/13 03:21:01;;;;;;;;;;;;;;;;;;2102860;28;3688;-74
2021/09/13 03:22:02;;;;;;;;;;;;;;;;;;2102998;28;4471;-75
2021/09/13 03:23:02;;;;;;;;;;;;;;;;;;2102724;28;3918;-75
2021/09/13 03:24:03;;;;;;;;;;;;;;;;;;2101929;28;4311;-75
2021/09/13 03:25:03;;;;;;;;;;;;;;;;;;2103880;28;3802;-74
2021/09/13 03:26:04;;;;;;;;;;;;;;;;;;2102095;28;1203;-74
2021/09/13 03:27:04;;;;;;;;;;;;;;;;;;2103573;28;1124;-74
2021/09/13 03:28:06;;;;;;;;;;;;;;;;;;2103499;28;2569;-74
2021/09/13 03:29:06;;;;;;;;;;;;;;;;;;2104647;27;1360;-74
2021/09/13 03:30:07;;;;;;;;;;;;;;;;;;2103704;28;1910;-74
2021/09/13 03:31:07;;;;;;;;;;;;;;;;;;2103790;28;1300;-74
2021/09/13 03:32:08;;;;;;;;;;;;;;;;;;2104085;28;1190;-74
2021/09/13 03:33:08;;;;;;;;;;;;;;;;;;2103395;28;1363;-74
2021/09/13 03:34:10;;;;;;;;;;;;;;;;;;2103590;28;1129;-74
2021/09/13 03:35:10;;;;;;;;;;;;;;;;;;2102812;28;2544;-74
2021/09/13 03:36:11;;;;;;;;;;;;;;;;;;2102320;28;1260;-75
2021/09/13 03:37:11;;;;;;;;;;;;;;;;;;2099773;28;1088;-74
2021/09/13 03:38:12;;;;;;;;;;;;;;;;;;2102646;28;1722;-74
2021/09/13 03:39:12;;;;;;;;;;;;;;;;;;2103536;28;1129;-74
2021/09/13 03:40:13;;;;;;;;;;;;;;;;;;2103468;28;1053;-74
2021/09/13 03:41:13;;;;;;;;;;;;;;;;;;2102810;28;1122;-74
2021/09/13 03:42:55;;;;;;;;;;;;;;;;;;2118970;27;2966;-74
2021/09/13 03:43:55;;;;;;;;;;;;;;;;;;2123367;27;3535;-74
2021/09/13 03:44:56;;;;;;;;;;;;;;;;;;2123309;27;4057;-74
2021/09/13 03:45:56;;;;;;;;;;;;;;;;;;2121670;27;3941;-75
2021/09/13 03:46:57;;;;;;;;;;;;;;;;;;2124133;27;4011;-74
2021/09/13 03:47:57;;;;;;;;;;;;;;;;;;2124880;27;3945;-74
2021/09/13 03:48:59;;;;;;;;;;;;;;;;;;2120996;27;1270;-75
2021/09/13 03:49:59;;;;;;;;;;;;;;;;;;2120743;27;1040;-75
2021/09/13 03:51:00;;;;;;;;;;;;;;;;;;2119814;27;1068;-75
2021/09/13 03:52:00;;;;;;;;;;;;;;;;;;2120424;27;3932;-74
2021/09/13 03:53:01;;;;;;;;;;;;;;;;;;2120593;27;1440;-74
2021/09/13 03:54:01;;;;;;;;;;;;;;;;;;2120230;27;1503;-74
2021/09/13 03:55:02;;;;;;;;;;;;;;;;;;2120416;27;3363;-74
2021/09/13 03:56:02;;;;;;;;;;;;;;;;;;2118893;27;1998;-74
2021/09/13 03:57:04;;;;;;;;;;;;;;;;;;2120558;27;1808;-74
2021/09/13 03:58:04;;;;;;;;;;;;;;;;;;2120177;27;1052;-74
2021/09/13 03:59:05;;;;;;;;;;;;;;;;;;2120948;27;1231;-74
2021/09/13 04:00:05;;;;;;;;;;;;;;;;;;2120164;27;1103;-74
2021/09/13 04:01:06;;;;;;;;;;;;;;;;;;2119895;27;1160;-74
2021/09/13 04:02:07;;;;;;;;;;;;;;;;;;2120402;27;1917;-74
2021/09/13 04:03:11;;;;;;;;;;;;;;;;;;2119412;27;1096;-74
2021/09/13 04:04:15;;;;;;;;;;;;;;;;;;2120017;27;1086;-74
2021/09/13 04:05:19;;;;;;;;;;;;;;;;;;2120149;27;2275;-75
2021/09/13 04:06:24;;;;;;;;;;;;;;;;;;2119235;27;1158;-74
2021/09/13 04:07:26;;;;;;;;;;;;;;;;;;2119686;27;1133;-75
2021/09/13 04:08:42;;;;;;;;;;;;;;;;;;2119634;27;1340;-75
2021/09/13 04:09:51;;;;;;;;;;;;;;;;;;2120203;27;1133;-74
2021/09/13 04:11:06;;;;;;;;;;;;;;;;;;2119775;27;1056;-74
2021/09/13 04:12:07;;;;;;;;;;;;;;;;;;2119179;27;1048;-74
2021/09/13 04:13:08;;;;;;;;;;;;;;;;;;2119819;27;1071;-74
2021/09/13 04:14:08;;;;;;;;;;;;;;;;;;2118579;27;4067;-74
2021/09/13 04:15:09;;;;;;;;;;;;;;;;;;2118737;27;2072;-74
2021/09/13 04:16:09;;;;;;;;;;;;;;;;;;2118253;27;3941;-75
2021/09/13 04:17:10;;;;;;;;;;;;;;;;;;2119069;27;1130;-75
2021/09/13 04:18:10;;;;;;;;;;;;;;;;;;2120514;27;1299;-74
2021/09/13 04:19:11;;;;;;;;;;;;;;;;;;2119617;27;1034;-75
2021/09/13 04:20:12;;;;;;;;;;;;;;;;;;2120057;27;1061;-74
2021/09/13 04:21:13;;;;;;;;;;;;;;;;;;2119367;27;1012;-74
2021/09/13 04:22:13;;;;;;;;;;;;;;;;;;2120526;27;1913;-74
2021/09/13 04:23:16;;;;;;;;;;;;;;;;;;2118920;27;1169;-74
2021/09/13 04:24:16;;;;;;;;;;;;;;;;;;2119342;27;1115;-74
2021/09/13 04:25:17;;;;;;;;;;;;;;;;;;2118695;27;3955;-75
2021/09/13 04:26:18;;;;;;;;;;;;;;;;;;2118987;27;1170;-75
2021/09/13 04:27:19;;;;;;;;;;;;;;;;;;2119093;27;1254;-74
2021/09/13 04:28:19;;;;;;;;;;;;;;;;;;2120484;27;3532;-74
2021/09/13 04:29:20;;;;;;;;;;;;;;;;;;2120640;27;1017;-74
2021/09/13 04:30:21;;;;;;;;;;;;;;;;;;2119893;27;1203;-75
2021/09/13 04:31:22;;;;;;;;;;;;;;;;;;2119345;27;1148;-74
2021/09/13 04:32:23;;;;;;;;;;;;;;;;;;2120068;27;1315;-75
2021/09/13 04:33:23;;;;;;;;;;;;;;;;;;2118739;27;3622;-74
2021/09/13 04:34:24;;;;;;;;;;;;;;;;;;2119411;27;1250;-75
2021/09/13 04:35:24;;;;;;;;;;;;;;;;;;2119317;27;2348;-74
2021/09/13 04:36:25;;;;;;;;;;;;;;;;;;2119526;27;1016;-75
2021/09/13 04:37:26;;;;;;;;;;;;;;;;;;2119672;27;1092;-74
2021/09/13 04:38:27;;;;;;;;;;;;;;;;;;2119657;27;1246;-74
2021/09/13 04:39:27;;;;;;;;;;;;;;;;;;2120355;27;1111;-75
2021/09/13 04:40:28;;;;;;;;;;;;;;;;;;2119311;27;3700;-74
2021/09/13 04:41:28;;;;;;;;;;;;;;;;;;2120307;27;1178;-74
2021/09/13 04:42:29;;;;;;;;;;;;;;;;;;2119418;27;1901;-74
2021/09/13 04:43:29;;;;;;;;;;;;;;;;;;2119439;27;1205;-74
2021/09/13 04:44:30;;;;;;;;;;;;;;;;;;2113935;27;1236;-74
2021/09/13 04:45:30;;;;;;;;;;;;;;;;;;2118701;27;2116;-75
2021/09/13 04:46:31;;;;;;;;;;;;;;;;;;2118104;27;1213;-74
2021/09/13 04:47:32;;;;;;;;;;;;;;;;;;2120073;27;1283;-74
2021/09/13 04:48:33;;;;;;;;;;;;;;;;;;2117030;27;1273;-74
2021/09/13 04:49:33;;;;;;;;;;;;;;;;;;2120176;27;1172;-74
2021/09/13 04:50:34;;;;;;;;;;;;;;;;;;2119726;27;3952;-74
2021/09/13 04:51:36;;;;;;;;;;;;;;;;;;2118327;27;1244;-74
2021/09/13 04:52:37;;;;;;;;;;;;;;;;;;2119799;27;1085;-74
2021/09/13 04:53:37;;;;;;;;;;;;;;;;;;2114346;27;1280;-74
2021/09/13 04:54:38;;;;;;;;;;;;;;;;;;2114417;27;1235;-74
2021/09/13 04:55:40;;;;;;;;;;;;;;;;;;2112372;27;2876;-75
2021/09/13 04:56:41;;;;;;;;;;;;;;;;;;2112940;27;1065;-74
2021/09/13 04:57:41;;;;;;;;;;;;;;;;;;2113806;27;1215;-74
2021/09/13 04:58:42;;;;;;;;;;;;;;;;;;2113703;27;1317;-74
2021/09/13 04:59:42;;;;;;;;;;;;;;;;;;2115381;27;1102;-74
2021/09/13 05:00:43;;;;;;;;;;;;;;;;;;2114870;27;1033;-74
2021/09/13 05:01:44;;;;;;;;;;;;;;;;;;2113363;27;1282;-75
2021/09/13 05:02:45;;;;;;;;;;;;;;;;;;2113725;27;1988;-74
2021/09/13 05:03:47;;;;;;;;;;;;;;;;;;2111693;27;1044;-75
2021/09/13 05:04:48;;;;;;;;;;;;;;;;;;2113953;27;1081;-74
2021/09/13 05:05:48;;;;;;;;;;;;;;;;;;2114145;27;2307;-75
2021/09/13 05:06:49;;;;;;;;;;;;;;;;;;2112634;27;2469;-75
2021/09/13 05:07:49;;;;;;;;;;;;;;;;;;2114644;27;1102;-75
2021/09/13 05:08:51;;;;;;;;;;;;;;;;;;2113772;27;1364;-75
2021/09/13 05:09:51;;;;;;;;;;;;;;;;;;2114089;27;1365;-74
2021/09/13 05:10:52;;;;;;;;;;;;;;;;;;2113518;27;1039;-74
2021/09/13 05:11:52;;;;;;;;;;;;;;;;;;2113608;27;1056;-75
2021/09/13 05:12:53;;;;;;;;;;;;;;;;;;2113850;27;1037;-74
2021/09/13 05:13:54;;;;;;;;;;;;;;;;;;2113056;27;1135;-74
2021/09/13 05:14:55;;;;;;;;;;;;;;;;;;2113768;27;2749;-74
2021/09/13 05:15:55;;;;;;;;;;;;;;;;;;2113336;27;3285;-74
2021/09/13 05:16:56;;;;;;;;;;;;;;;;;;2112244;27;2485;-74
2021/09/13 05:17:58;;;;;;;;;;;;;;;;;;2112866;27;4035;-74
2021/09/13 05:18:59;;;;;;;;;;;;;;;;;;2112687;27;1250;-75
2021/09/13 05:19:59;;;;;;;;;;;;;;;;;;2113566;27;1138;-75
2021/09/13 05:21:00;;;;;;;;;;;;;;;;;;2113735;27;1060;-75
2021/09/13 05:22:01;;;;;;;;;;;;;;;;;;2114260;27;1987;-75
2021/09/13 05:23:02;;;;;;;;;;;;;;;;;;2114217;27;2906;-75
2021/09/13 05:24:02;;;;;;;;;;;;;;;;;;2113543;27;1132;-74
2021/09/13 05:25:04;;;;;;;;;;;;;;;;;;2113741;27;4320;-74
2021/09/13 05:26:04;;;;;;;;;;;;;;;;;;2113038;27;1040;-74
2021/09/13 05:27:05;;;;;;;;;;;;;;;;;;2114721;27;1076;-74
2021/09/13 05:28:05;;;;;;;;;;;;;;;;;;2114878;27;1068;-74
2021/09/13 05:29:06;;;;;;;;;;;;;;;;;;2113511;27;1402;-74
2021/09/13 05:30:07;;;;;;;;;;;;;;;;;;2113920;27;1029;-74
2021/09/13 05:31:08;;;;;;;;;;;;;;;;;;2113229;27;1165;-74
2021/09/13 05:32:08;;;;;;;;;;;;;;;;;;2113914;27;1108;-74
2021/09/13 05:33:09;;;;;;;;;;;;;;;;;;2114500;27;1064;-75
2021/09/13 05:34:09;;;;;;;;;;;;;;;;;;2111869;27;4197;-74
2021/09/13 05:35:10;;;;;;;;;;;;;;;;;;2112329;27;3813;-74
2021/09/13 05:36:10;;;;;;;;;;;;;;;;;;2113039;27;1121;-75
2021/09/13 05:37:11;;;;;;;;;;;;;;;;;;2113371;27;1927;-74
2021/09/13 05:38:12;;;;;;;;;;;;;;;;;;2111312;27;1749;-74
2021/09/13 05:39:13;;;;;;;;;;;;;;;;;;2112178;27;1244;-74
2021/09/13 05:40:13;;;;;;;;;;;;;;;;;;2113214;27;1032;-74
2021/09/13 05:41:14;;;;;;;;;;;;;;;;;;2113210;27;1517;-74
2021/09/13 05:42:14;;;;;;;;;;;;;;;;;;2112519;27;1914;-74
2021/09/13 05:43:15;;;;;;;;;;;;;;;;;;2111878;27;1901;-74
2021/09/13 05:44:15;;;;;;;;;;;;;;;;;;2111404;27;4939;-74
2021/09/13 05:45:16;;;;;;;;;;;;;;;;;;2111666;27;3910;-75
2021/09/13 05:46:16;;;;;;;;;;;;;;;;;;2112516;27;1182;-75
2021/09/13 05:47:17;;;;;;;;;;;;;;;;;;2113422;27;1229;-74
2021/09/13 05:48:18;;;;;;;;;;;;;;;;;;2114222;27;1289;-74
2021/09/13 05:49:19;;;;;;;;;;;;;;;;;;2113209;27;1108;-74
2021/09/13 05:50:19;;;;;;;;;;;;;;;;;;2112512;27;4049;-74
2021/09/13 05:51:20;;;;;;;;;;;;;;;;;;2113056;27;1064;-75
2021/09/13 05:52:20;;;;;;;;;;;;;;;;;;2113328;27;1080;-74
2021/09/13 05:53:21;;;;;;;;;;;;;;;;;;2112970;27;1072;-74
2021/09/13 05:54:22;;;;;;;;;;;;;;;;;;2113415;27;1021;-74
2021/09/13 05:55:23;;;;;;;;;;;;;;;;;;2112837;27;4348;-75
2021/09/13 05:56:23;;;;;;;;;;;;;;;;;;2112685;27;1117;-74
2021/09/13 05:57:24;;;;;;;;;;;;;;;;;;2112835;27;3745;-74
2021/09/13 05:58:24;;;;;;;;;;;;;;;;;;2113018;27;1373;-75
2021/09/13 05:59:26;;;;;;;;;;;;;;;;;;2110484;27;1474;-75
2021/09/13 06:00:27;;;;;;;;;;;;;;;;;;2113121;27;1121;-75
2021/09/13 06:01:27;;;;;;;;;;;;;;;;;;2112858;27;1121;-75
2021/09/13 06:02:28;;;;;;;;;;;;;;;;;;2113256;27;3704;-74
2021/09/13 06:03:28;;;;;;;;;;;;;;;;;;2111594;27;1088;-74
2021/09/13 06:04:32;;;;;;;;;;;;;;;;;;2113611;27;1083;-74
2021/09/13 06:05:33;;;;;;;;;;;;;;;;;;2112115;27;2556;-74
2021/09/13 06:06:33;;;;;;;;;;;;;;;;;;2112302;27;1092;-74
2021/09/13 06:07:34;;;;;;;;;;;;;;;;;;2113829;27;1202;-74
2021/09/13 06:08:34;;;;;;;;;;;;;;;;;;2112849;27;1344;-74
2021/09/13 06:09:35;;;;;;;;;;;;;;;;;;2112962;27;995;-74
2021/09/13 06:10:36;;;;;;;;;;;;;;;;;;2113833;27;1173;-74
2021/09/13 06:11:36;;;;;;;;;;;;;;;;;;2111881;27;1112;-74
2021/09/13 06:12:37;;;;;;;;;;;;;;;;;;2113881;27;1089;-75
2021/09/13 06:13:39;;;;;;;;;;;;;;;;;;2111571;27;3097;-74
2021/09/13 06:14:41;;;;;;;;;;;;;;;;;;2113179;27;1029;-75
2021/09/13 06:15:42;;;;;;;;;;;;;;;;;;2112270;27;3924;-74
2021/09/13 06:16:42;;;;;;;;;;;;;;;;;;2110401;27;3776;-74
2021/09/13 06:17:43;;;;;;;;;;;;;;;;;;2112966;27;3686;-75
2021/09/13 06:18:43;;;;;;;;;;;;;;;;;;2112980;27;3165;-74
2021/09/13 06:19:46;;;;;;;;;;;;;;;;;;2112625;27;1209;-74
2021/09/13 06:20:46;;;;;;;;;;;;;;;;;;2113844;27;1060;-74
2021/09/13 06:21:49;;;;;;;;;;;;;;;;;;2113110;27;1460;-74
2021/09/13 06:22:50;;;;;;;;;;;;;;;;;;2113501;27;1925;-75
2021/09/13 06:23:51;;;;;;;;;;;;;;;;;;2111973;27;1070;-75
2021/09/13 06:24:56;;;;;;;;;;;;;;;;;;2112795;27;2666;-74
2021/09/13 06:25:56;;;;;;;;;;;;;;;;;;2111513;27;1048;-74
2021/09/13 06:26:57;;;;;;;;;;;;;;;;;;2113044;27;1080;-74
2021/09/13 06:27:57;;;;;;;;;;;;;;;;;;2113813;27;1104;-74
2021/09/13 06:28:58;;;;;;;;;;;;;;;;;;2113079;27;1334;-75
2021/09/13 06:29:58;;;;;;;;;;;;;;;;;;2113613;27;1134;-74
2021/09/13 06:30:59;;;;;;;;;;;;;;;;;;2112650;27;978;-75
2021/09/13 06:31:59;;;;;;;;;;;;;;;;;;2111222;27;2351;-74
2021/09/13 06:33:00;;;;;;;;;;;;;;;;;;2112006;27;1219;-74
2021/09/13 06:34:01;;;;;;;;;;;;;;;;;;2110908;27;2415;-74
2021/09/13 06:35:02;;;;;;;;;;;;;;;;;;2111524;27;4227;-74
2021/09/13 06:36:02;;;;;;;;;;;;;;;;;;2111946;27;1043;-74
2021/09/13 06:37:03;;;;;;;;;;;;;;;;;;2111827;27;1937;-74
2021/09/13 06:38:04;;;;;;;;;;;;;;;;;;2112953;27;1110;-75
2021/09/13 06:39:05;;;;;;;;;;;;;;;;;;2113791;27;1178;-74
2021/09/13 06:40:05;;;;;;;;;;;;;;;;;;2112727;27;3584;-74
2021/09/13 06:41:06;;;;;;;;;;;;;;;;;;2112910;27;1041;-74
2021/09/13 06:42:06;;;;;;;;;;;;;;;;;;2113407;27;1115;-74
2021/09/13 06:43:09;;;;;;;;;;;;;;;;;;2112516;27;1901;-74
2021/09/13 06:44:09;;;;;;;;;;;;;;;;;;2113069;27;1084;-74
2021/09/13 06:45:12;;;;;;;;;;;;;;;;;;2112588;27;3057;-74
2021/09/13 06:46:13;;;;;;;;;;;;;;;;;;2112208;27;1265;-74
2021/09/13 06:47:23;;;;;;;;;;;;;;;;;;2112895;27;1402;-74
2021/09/13 06:48:24;;;;;;;;;;;;;;;;;;2113887;27;1530;-74
2021/09/13 06:49:25;;;;;;;;;;;;;;;;;;2112284;27;1060;-74
2021/09/13 06:50:25;;;;;;;;;;;;;;;;;;2112925;27;4057;-75
2021/09/13 06:51:26;;;;;;;;;;;;;;;;;;2112188;27;1138;-75
2021/09/13 06:52:26;;;;;;;;;;;;;;;;;;2112691;27;1282;-75
2021/09/13 06:53:28;;;;;;;;;;;;;;;;;;2111999;27;1291;-74
2021/09/13 06:54:29;;;;;;;;;;;;;;;;;;2112151;27;3416;-75
2021/09/13 06:55:29;;;;;;;;;;;;;;;;;;2111679;27;3887;-75
2021/09/13 06:56:30;;;;;;;;;;;;;;;;;;2111807;27;1355;-74
2021/09/13 06:57:30;;;;;;;;;;;;;;;;;;2113156;27;1116;-74
2021/09/13 06:58:31;;;;;;;;;;;;;;;;;;2113605;27;1240;-75
2021/09/13 06:59:32;;;;;;;;;;;;;;;;;;2113854;27;1084;-74
2021/09/13 07:00:32;;;;;;;;;;;;;;;;;;2113006;27;1080;-74
2021/09/13 07:01:34;;;;;;;;;;;;;;;;;;2112806;27;1057;-75
2021/09/13 07:02:34;;;;;;;;;;;;;;;;;;2113513;27;1902;-74
2021/09/13 07:03:35;;;;;;;;;;;;;;;;;;2111914;27;1387;-75